createdAt,value
2019-04-25T00:02:25.934Z,21.47
2019-04-25T00:04:52.797Z,20.63
2019-04-25T00:07:21.616Z,21.30
2019-04-25T00:09:53.443Z,21.53
2019-04-25T00:12:20.314Z,22.37
2019-04-25T00:14:51.297Z,21.17
2019-04-25T00:17:18.778Z,22.07
2019-04-25T00:19:46.459Z,21.40
2019-04-25T00:22:31.661Z,21.10
2019-04-25T00:25:17.861Z,20.80
2019-04-25T00:27:45.987Z,21.30
2019-04-25T00:30:13.357Z,23.10
2019-04-25T00:32:42.168Z,22.73
2019-04-25T00:35:11.715Z,22.40
2019-04-25T00:37:38.783Z,21.73
2019-04-25T00:40:06.238Z,20.77
2019-04-25T00:42:33.196Z,22.97
2019-04-25T00:45:00.179Z,21.53
2019-04-25T00:47:27.026Z,22.20
2019-04-25T00:49:53.779Z,21.63
2019-04-25T00:52:21.112Z,21.33
2019-04-25T00:54:50.441Z,23.87
2019-04-25T00:57:19.662Z,21.67
2019-04-25T00:59:53.164Z,21.53
2019-04-25T01:02:37.707Z,22.50
2019-04-25T01:05:05.571Z,23.53
2019-04-25T01:07:34.458Z,22.40
2019-04-25T01:10:03.138Z,22.17
2019-04-25T01:12:31.309Z,21.90
2019-04-25T01:14:58.572Z,21.30
2019-04-25T01:17:26.442Z,22.67
2019-04-25T01:19:56.966Z,22.33
2019-04-25T01:22:23.227Z,22.30
2019-04-25T01:24:51.453Z,21.10
2019-04-25T01:27:18.555Z,22.90
2019-04-25T01:29:46.230Z,23.37
2019-04-25T01:32:17.119Z,21.37
2019-04-25T01:35:00.089Z,21.50
2019-04-25T01:37:43.823Z,22.37
2019-04-25T01:40:28.556Z,20.13
2019-04-25T01:43:33.179Z,21.57
2019-04-25T01:46:03.363Z,21.20
2019-04-25T01:48:30.643Z,21.43
2019-04-25T01:50:58.783Z,20.47
2019-04-25T01:53:25.808Z,19.67
2019-04-25T01:56:02.370Z,21.27
2019-04-25T01:58:23.657Z,21.57
2019-04-25T02:00:54.691Z,19.50
2019-04-25T02:03:21.306Z,19.30
2019-04-25T02:05:48.150Z,19.37
2019-04-25T02:08:15.251Z,20.40
2019-04-25T02:10:44.626Z,18.70
2019-04-25T02:13:11.718Z,17.07
2019-04-25T02:15:40.169Z,16.40
2019-04-25T02:18:06.891Z,17.27
2019-04-25T02:20:34.055Z,17.30
2019-04-25T02:23:02.067Z,15.83
2019-04-25T02:25:28.839Z,14.80
2019-04-25T02:27:56.312Z,15.97
2019-04-25T02:30:25.479Z,12.53
2019-04-25T02:32:56.040Z,11.17
2019-04-25T02:35:21.555Z,11.20
2019-04-25T02:37:48.796Z,11.30
2019-04-25T02:40:17.680Z,11.53
2019-04-25T02:42:46.118Z,11.80
2019-04-25T02:45:31.440Z,11.90
2019-04-25T02:48:24.249Z,11.20
2019-04-25T02:51:16.743Z,10.90
2019-04-25T02:53:46.233Z,10.93
2019-04-25T02:56:30.226Z,12.77
2019-04-25T02:58:44.171Z,11.13
2019-04-25T03:01:19.446Z,10.87
2019-04-25T03:03:41.864Z,11.17
2019-04-25T03:06:09.746Z,10.43
2019-04-25T03:08:38.447Z,9.70
2019-04-25T03:11:07.200Z,9.73
2019-04-25T03:13:34.608Z,10.43
2019-04-25T03:16:06.119Z,10.50
2019-04-25T03:18:34.842Z,8.90
2019-04-25T03:21:12.411Z,10.37
2019-04-25T03:23:38.037Z,9.37
2019-04-25T03:26:06.230Z,9.10
2019-04-25T03:28:34.283Z,9.33
2019-04-25T03:31:02.119Z,10.33
2019-04-25T03:33:29.816Z,9.73
2019-04-25T03:35:57.167Z,9.60
2019-04-25T03:38:24.332Z,7.53
2019-04-25T03:40:51.031Z,8.10
2019-04-25T03:43:18.203Z,7.27
2019-04-25T03:45:45.456Z,6.30
2019-04-25T03:48:13.891Z,6.43
2019-04-25T03:50:41.971Z,5.57
2019-04-25T03:53:09.871Z,5.93
2019-04-25T03:55:37.129Z,5.80
2019-04-25T03:58:10.527Z,5.87
2019-04-25T04:00:37.158Z,5.70
2019-04-25T04:03:06.617Z,5.80
2019-04-25T04:05:34.380Z,5.73
2019-04-25T04:08:01.167Z,6.10
2019-04-25T04:10:28.112Z,5.93
2019-04-25T04:12:54.735Z,6.40
2019-04-25T04:15:23.163Z,6.87
2019-04-25T04:17:58.735Z,7.23
2019-04-25T04:20:35.900Z,6.40
2019-04-25T04:23:11.345Z,6.50
2019-04-25T04:25:38.271Z,7.53
2019-04-25T04:28:06.164Z,7.63
2019-04-25T04:30:33.977Z,7.70
2019-04-25T04:33:00.743Z,8.17
2019-04-25T04:35:27.375Z,8.37
2019-04-25T04:37:54.248Z,7.67
2019-04-25T04:40:20.977Z,7.50
2019-04-25T04:42:47.679Z,7.93
2019-04-25T04:45:15.768Z,7.97
2019-04-25T04:47:43.323Z,7.53
2019-04-25T04:50:10.582Z,8.00
2019-04-25T04:52:37.560Z,8.07
2019-04-25T04:55:08.408Z,7.47
2019-04-25T04:57:35.997Z,8.17
2019-04-25T05:00:03.533Z,7.17
2019-04-25T05:03:05.155Z,7.20
2019-04-25T05:05:57.481Z,6.60
2019-04-25T05:08:27.790Z,7.27
2019-04-25T05:10:57.216Z,7.10
2019-04-25T05:13:24.256Z,6.33
2019-04-25T05:15:51.014Z,6.70
2019-04-25T05:18:33.042Z,6.40
2019-04-25T05:20:48.095Z,6.90
2019-04-25T05:23:17.140Z,5.93
2019-04-25T05:25:44.268Z,5.90
2019-04-25T05:28:11.482Z,8.57
2019-04-25T05:30:43.932Z,6.73
2019-04-25T05:33:10.538Z,6.73
2019-04-25T05:35:37.155Z,6.17
2019-04-25T05:38:03.793Z,6.87
2019-04-25T05:40:31.315Z,6.60
2019-04-25T05:43:05.306Z,6.70
2019-04-25T05:45:33.849Z,6.27
2019-04-25T05:48:01.119Z,6.17
2019-04-25T05:50:28.820Z,6.47
2019-04-25T05:52:55.474Z,6.50
2019-04-25T05:55:24.206Z,6.70
2019-04-25T05:57:53.513Z,5.53
2019-04-25T06:00:20.711Z,5.80
2019-04-25T06:02:47.926Z,7.07
2019-04-25T06:05:14.531Z,5.97
2019-04-25T06:07:41.172Z,5.63
2019-04-25T06:10:37.102Z,3.87
2019-04-25T06:13:29.342Z,5.90
2019-04-25T06:16:03.413Z,4.70
2019-04-25T06:18:50.376Z,4.30
2019-04-25T06:21:18.206Z,3.33
2019-04-25T06:24:18.965Z,3.90
2019-04-25T06:27:05.889Z,2.80
2019-04-25T06:29:34.696Z,3.00
2019-04-25T06:32:06.595Z,2.77
2019-04-25T06:34:33.978Z,3.50
2019-04-25T06:37:02.388Z,2.90
2019-04-25T06:39:30.028Z,3.50
2019-04-25T06:41:57.007Z,3.73
2019-04-25T06:44:34.142Z,4.67
2019-04-25T06:47:15.123Z,5.17
2019-04-25T06:49:43.244Z,6.37
2019-04-25T06:52:09.929Z,5.60
2019-04-25T06:54:36.578Z,5.10
2019-04-25T06:57:04.509Z,5.83
2019-04-25T06:59:32.289Z,5.10
2019-04-25T07:02:00.280Z,5.67
2019-04-25T07:04:28.018Z,6.93
2019-04-25T07:07:09.376Z,7.20
2019-04-25T07:09:29.534Z,7.60
2019-04-25T07:11:57.587Z,8.23
2019-04-25T07:14:25.820Z,8.23
2019-04-25T07:16:53.361Z,9.13
2019-04-25T07:19:20.776Z,7.60
2019-04-25T07:21:47.822Z,7.27
2019-04-25T07:24:17.437Z,7.63
2019-04-25T07:26:55.198Z,8.23
2019-04-25T07:29:33.734Z,8.00
2019-04-25T07:32:15.415Z,9.00
2019-04-25T07:34:43.789Z,7.40
2019-04-25T07:37:13.143Z,9.23
2019-04-25T07:39:40.111Z,8.67
2019-04-25T07:42:06.744Z,6.70
2019-04-25T07:44:47.824Z,7.70
2019-04-25T07:47:04.059Z,7.70
2019-04-25T07:49:31.226Z,8.10
2019-04-25T07:51:58.488Z,7.40
2019-04-25T07:54:27.536Z,7.70
2019-04-25T07:56:55.114Z,5.90
2019-04-25T07:59:23.616Z,7.33
2019-04-25T08:01:50.543Z,6.60
2019-04-25T08:04:17.807Z,7.00
2019-04-25T08:06:44.778Z,6.30
2019-04-25T08:09:14.200Z,6.53
2019-04-25T08:11:41.410Z,5.77
2019-04-25T08:14:28.662Z,4.67
2019-04-25T08:16:58.493Z,5.57
2019-04-25T08:19:25.232Z,5.13
2019-04-25T08:21:53.661Z,5.50
2019-04-25T08:24:21.407Z,4.23
2019-04-25T08:26:48.037Z,5.47
2019-04-25T08:29:14.820Z,5.17
2019-04-25T08:31:43.438Z,5.60
2019-04-25T08:34:10.083Z,5.23
2019-04-25T08:36:38.531Z,4.53
2019-04-25T08:39:06.840Z,5.20
2019-04-25T08:41:34.790Z,4.43
2019-04-25T08:44:03.999Z,4.53
2019-04-25T08:46:33.896Z,3.67
2019-04-25T08:49:33.265Z,5.43
2019-04-25T08:52:00.655Z,4.50
2019-04-25T08:54:41.094Z,5.23
2019-04-25T08:57:10.195Z,5.60
2019-04-25T08:59:58.939Z,4.03
2019-04-25T09:02:40.798Z,4.63
2019-04-25T09:05:20.110Z,4.13
2019-04-25T09:07:47.957Z,4.50
2019-04-25T09:10:15.234Z,5.27
2019-04-25T09:12:43.995Z,4.50
2019-04-25T09:15:14.094Z,3.60
2019-04-25T09:17:41.396Z,3.90
2019-04-25T09:20:08.343Z,3.87
2019-04-25T09:22:36.505Z,3.47
2019-04-25T09:25:05.745Z,3.33
2019-04-25T09:27:34.326Z,3.90
2019-04-25T09:30:03.929Z,4.27
2019-04-25T09:32:35.639Z,3.53
2019-04-25T09:35:03.818Z,4.60
2019-04-25T09:37:30.940Z,4.47
2019-04-25T09:40:13.941Z,4.30
2019-04-25T09:42:41.514Z,4.13
2019-04-25T09:45:28.194Z,4.20
2019-04-25T09:47:56.588Z,4.60
2019-04-25T09:50:51.615Z,3.70
2019-04-25T09:53:23.273Z,3.87
2019-04-25T09:56:08.214Z,3.67
2019-04-25T09:58:44.651Z,3.70
2019-04-25T10:01:13.910Z,3.97
2019-04-25T10:03:41.058Z,3.10
2019-04-25T10:06:07.688Z,3.50
2019-04-25T10:08:34.916Z,3.90
2019-04-25T10:11:03.974Z,3.80
2019-04-25T10:13:30.956Z,4.00
2019-04-25T10:16:02.372Z,3.70
2019-04-25T10:18:31.095Z,3.00
2019-04-25T10:20:57.754Z,2.97
2019-04-25T10:23:25.503Z,3.30
2019-04-25T10:25:53.742Z,2.10
2019-04-25T10:28:21.131Z,2.03
2019-04-25T10:30:47.791Z,1.90
2019-04-25T10:33:14.563Z,2.30
2019-04-25T10:35:50.810Z,1.73
2019-04-25T10:38:11.351Z,1.80
2019-04-25T10:40:38.488Z,1.33
2019-04-25T10:43:06.456Z,1.43
2019-04-25T10:45:34.104Z,6.43
2019-04-25T10:48:01.599Z,6.10
2019-04-25T10:50:28.848Z,4.20
2019-04-25T10:52:55.494Z,3.60
2019-04-25T10:55:23.381Z,2.57
2019-04-25T10:57:50.903Z,2.03
2019-04-25T11:00:25.128Z,2.30
2019-04-25T11:02:53.828Z,1.80
2019-04-25T11:05:21.267Z,2.67
2019-04-25T11:07:48.658Z,1.80
2019-04-25T11:10:16.503Z,1.33
2019-04-25T11:12:44.556Z,11.57
2019-04-25T11:15:14.343Z,8.40
2019-04-25T11:17:45.166Z,3.90
2019-04-25T11:20:23.202Z,3.40
2019-04-25T11:22:50.259Z,2.30
2019-04-25T11:25:17.222Z,0.93
2019-04-25T11:27:48.148Z,0.93
2019-04-25T11:30:17.433Z,1.20
2019-04-25T11:32:45.190Z,1.10
2019-04-25T11:35:14.062Z,1.30
2019-04-25T11:37:40.898Z,1.00
2019-04-25T11:40:17.715Z,0.80
2019-04-25T11:42:45.925Z,1.20
2019-04-25T11:45:14.342Z,1.00
2019-04-25T11:47:41.519Z,1.00
2019-04-25T11:50:09.239Z,1.40
2019-04-25T11:52:36.641Z,1.07
2019-04-25T11:55:04.266Z,1.10
2019-04-25T11:57:32.986Z,0.83
2019-04-25T12:00:00.235Z,0.97
2019-04-25T12:02:27.496Z,0.60
2019-04-25T12:04:55.280Z,1.00
2019-04-25T12:07:23.676Z,0.83
2019-04-25T12:09:50.990Z,1.30
2019-04-25T12:12:18.496Z,1.13
2019-04-25T12:14:46.404Z,0.60
2019-04-25T12:17:15.724Z,1.10
2019-04-25T12:19:43.788Z,0.90
2019-04-25T12:22:13.399Z,1.20
2019-04-25T12:24:44.538Z,0.87
2019-04-25T12:27:11.236Z,1.00
2019-04-25T12:29:38.886Z,0.93
2019-04-25T12:32:07.103Z,1.13
2019-04-25T12:34:34.155Z,0.60
2019-04-25T12:37:01.924Z,0.63
2019-04-25T12:39:28.647Z,0.67
2019-04-25T12:41:56.035Z,1.00
2019-04-25T12:44:47.469Z,1.60
2019-04-25T12:47:18.679Z,1.37
2019-04-25T12:49:46.597Z,1.00
2019-04-25T12:52:13.799Z,1.27
2019-04-25T12:54:40.595Z,1.10
2019-04-25T12:57:08.300Z,1.40
2019-04-25T12:59:35.276Z,1.23
2019-04-25T13:02:04.564Z,1.30
2019-04-25T13:04:33.147Z,1.60
2019-04-25T13:07:01.096Z,0.97
2019-04-25T13:09:29.167Z,1.40
2019-04-25T13:11:55.964Z,1.13
2019-04-25T13:14:23.365Z,1.27
2019-04-25T13:16:51.026Z,1.33
2019-04-25T13:19:23.979Z,1.30
2019-04-25T13:21:49.418Z,1.00
2019-04-25T13:24:16.774Z,1.80
2019-04-25T13:26:50.682Z,0.73
2019-04-25T13:29:43.611Z,1.20
2019-04-25T13:32:33.112Z,1.10
2019-04-25T13:35:04.824Z,0.80
2019-04-25T13:37:31.658Z,1.37
2019-04-25T13:40:00.472Z,1.30
2019-04-25T13:42:27.855Z,1.13
2019-04-25T13:44:54.684Z,1.20
2019-04-25T13:47:22.180Z,1.20
2019-04-25T13:49:50.239Z,1.10
2019-04-25T13:52:17.758Z,1.23
2019-04-25T13:54:44.911Z,1.60
2019-04-25T13:57:13.211Z,1.30
2019-04-25T13:59:41.886Z,1.13
2019-04-25T14:02:08.848Z,2.47
2019-04-25T14:04:36.695Z,1.70
2019-04-25T14:07:03.779Z,1.20
2019-04-25T14:09:32.101Z,1.07
2019-04-25T14:11:59.591Z,1.50
2019-04-25T14:14:27.046Z,0.80
2019-04-25T14:17:19.126Z,1.63
2019-04-25T14:20:17.307Z,1.33
2019-04-25T14:22:45.346Z,2.20
2019-04-25T14:25:14.958Z,2.10
2019-04-25T14:27:43.369Z,1.63
2019-04-25T14:30:13.499Z,0.90
2019-04-25T14:32:40.450Z,0.50
2019-04-25T14:35:07.076Z,1.13
2019-04-25T14:37:39.432Z,0.80
2019-04-25T14:40:04.073Z,0.90
2019-04-25T14:42:31.035Z,1.10
2019-04-25T14:44:57.731Z,0.53
2019-04-25T14:47:24.480Z,0.70
2019-04-25T14:49:53.610Z,0.60
2019-04-25T14:52:20.269Z,0.73
2019-04-25T14:55:19.737Z,1.60
2019-04-25T14:57:47.603Z,0.80
2019-04-25T15:00:23.971Z,1.37
2019-04-25T15:02:50.863Z,1.00
2019-04-25T15:05:19.679Z,0.70
2019-04-25T15:07:46.755Z,1.27
2019-04-25T15:10:13.903Z,0.87
2019-04-25T15:12:41.975Z,0.97
2019-04-25T15:15:09.031Z,0.80
2019-04-25T15:17:45.200Z,0.93
2019-04-25T15:20:05.588Z,0.70
2019-04-25T15:22:32.930Z,0.70
2019-04-25T15:25:00.282Z,0.80
2019-04-25T15:27:27.015Z,0.70
2019-04-25T15:29:53.671Z,0.67
2019-04-25T15:32:23.015Z,0.97
2019-04-25T15:34:54.483Z,1.20
2019-04-25T15:37:27.867Z,0.83
2019-04-25T15:39:59.313Z,1.13
2019-04-25T15:42:54.843Z,0.80
2019-04-25T15:45:53.018Z,1.37
2019-04-25T15:48:19.698Z,0.77
2019-04-25T15:50:47.247Z,1.50
2019-04-25T15:53:14.987Z,1.40
2019-04-25T15:55:41.655Z,1.50
2019-04-25T15:58:09.835Z,2.20
2019-04-25T16:00:37.794Z,2.10
2019-04-25T16:03:05.167Z,1.70
2019-04-25T16:05:31.915Z,1.00
2019-04-25T16:07:59.755Z,0.90
2019-04-25T16:10:26.407Z,0.90
2019-04-25T16:12:53.646Z,1.77
2019-04-25T16:15:21.739Z,0.70
2019-04-25T16:17:48.780Z,1.20
2019-04-25T16:20:16.115Z,1.90
2019-04-25T16:22:43.055Z,0.80
2019-04-25T16:25:10.524Z,1.17
2019-04-25T16:27:37.663Z,1.40
2019-04-25T16:30:05.223Z,1.70
2019-04-25T16:32:36.641Z,0.87
2019-04-25T16:35:04.543Z,1.47
2019-04-25T16:37:31.265Z,1.10
2019-04-25T16:39:58.743Z,0.77
2019-04-25T16:42:26.667Z,1.13
2019-04-25T16:44:54.455Z,1.15
2019-04-25T16:47:24.351Z,0.80
2019-04-25T16:49:51.839Z,0.90
2019-04-25T16:52:18.767Z,0.60
2019-04-25T16:54:46.062Z,0.80
2019-04-25T16:57:13.288Z,1.00
2019-04-25T16:59:42.016Z,0.87
2019-04-25T17:02:09.226Z,1.10
2019-04-25T17:04:36.171Z,1.10
2019-04-25T17:07:03.425Z,0.80
2019-04-25T17:09:31.794Z,1.00
2019-04-25T17:12:00.549Z,0.90
2019-04-25T17:14:56.280Z,0.70
2019-04-25T17:17:31.726Z,1.00
2019-04-25T17:20:20.949Z,0.90
2019-04-25T17:22:48.273Z,1.00
2019-04-25T17:25:15.831Z,0.83
2019-04-25T17:27:42.607Z,0.87
2019-04-25T17:30:10.038Z,0.80
2019-04-25T17:32:53.593Z,1.07
2019-04-25T17:35:48.343Z,1.10
2019-04-25T17:38:33.623Z,1.63
2019-04-25T17:41:00.888Z,1.03
2019-04-25T17:43:28.148Z,1.03
2019-04-25T17:45:55.495Z,1.13
2019-04-25T17:48:22.463Z,1.07
2019-04-25T17:50:50.932Z,1.50
2019-04-25T17:53:18.375Z,1.47
2019-04-25T17:55:45.655Z,1.80
2019-04-25T17:58:12.575Z,1.10
2019-04-25T18:00:41.884Z,1.50
2019-04-25T18:03:10.823Z,1.43
2019-04-25T18:05:39.270Z,1.47
2019-04-25T18:08:06.807Z,1.57
2019-04-25T18:10:34.323Z,2.10
2019-04-25T18:13:02.427Z,1.50
2019-04-25T18:15:39.646Z,2.20
2019-04-25T18:18:10.643Z,2.23
2019-04-25T18:20:40.901Z,2.07
2019-04-25T18:23:16.501Z,2.17
2019-04-25T18:26:08.526Z,1.80
2019-04-25T18:28:58.853Z,2.23
2019-04-25T18:31:25.647Z,1.63
2019-04-25T18:33:56.976Z,1.70
2019-04-25T18:36:47.152Z,2.13
2019-04-25T18:39:26.003Z,2.90
2019-04-25T18:42:13.385Z,1.70
2019-04-25T18:44:54.631Z,1.60
2019-04-25T18:47:23.098Z,1.57
2019-04-25T18:49:49.752Z,1.87
2019-04-25T18:52:49.019Z,1.60
2019-04-25T18:55:27.847Z,2.07
2019-04-25T18:58:08.275Z,1.93
2019-04-25T19:00:44.351Z,1.63
2019-04-25T19:03:26.091Z,1.70
2019-04-25T19:06:05.318Z,1.90
2019-04-25T19:08:31.986Z,1.73
2019-04-25T19:10:59.650Z,1.87
2019-04-25T19:13:26.742Z,1.77
2019-04-25T19:15:53.700Z,1.90
2019-04-25T19:18:20.999Z,1.83
2019-04-25T19:20:48.164Z,1.97
2019-04-25T19:23:15.605Z,2.83
2019-04-25T19:25:43.737Z,2.27
2019-04-25T19:28:11.146Z,2.43
2019-04-25T19:30:38.671Z,2.63
2019-04-25T19:33:07.514Z,2.73
2019-04-25T19:35:35.127Z,2.83
2019-04-25T19:38:02.690Z,2.87
2019-04-25T19:40:52.291Z,3.50
2019-04-25T19:43:26.803Z,3.57
2019-04-25T19:45:53.847Z,3.30
2019-04-25T19:48:20.567Z,3.33
2019-04-25T19:50:47.963Z,3.20
2019-04-25T19:53:15.699Z,3.43
2019-04-25T19:55:43.884Z,3.60
2019-04-25T19:58:10.559Z,3.33
2019-04-25T20:00:38.387Z,3.60
2019-04-25T20:03:10.787Z,3.20
2019-04-25T20:06:00.160Z,4.03
2019-04-25T20:08:46.604Z,3.97
2019-04-25T20:11:21.031Z,4.30
2019-04-25T20:13:47.659Z,4.37
2019-04-25T20:16:14.651Z,4.30
2019-04-25T20:18:41.332Z,4.47
2019-04-25T20:21:10.056Z,5.30
2019-04-25T20:23:37.103Z,4.00
2019-04-25T20:26:03.752Z,3.90
2019-04-25T20:28:31.483Z,4.57
2019-04-25T20:30:59.038Z,3.80
2019-04-25T20:33:26.211Z,3.70
2019-04-25T20:35:55.321Z,4.30
2019-04-25T20:38:22.692Z,4.07
2019-04-25T20:40:49.824Z,4.00
2019-04-25T20:43:19.107Z,3.80
2019-04-25T20:45:46.945Z,4.27
2019-04-25T20:48:15.106Z,4.10
2019-04-25T20:50:43.423Z,4.67
2019-04-25T20:53:10.371Z,4.23
2019-04-25T20:55:37.384Z,3.73
2019-04-25T20:58:04.979Z,4.03
2019-04-25T21:00:40.139Z,3.70
2019-04-25T21:03:07.067Z,3.57
2019-04-25T21:05:36.155Z,4.07
2019-04-25T21:08:03.067Z,3.53
2019-04-25T21:10:29.725Z,3.43
2019-04-25T21:12:56.347Z,3.30
2019-04-25T21:15:42.988Z,3.03
2019-04-25T21:18:17.762Z,3.83
2019-04-25T21:20:45.103Z,3.70
2019-04-25T21:23:12.411Z,3.77
2019-04-25T21:25:39.414Z,3.67
2019-04-25T21:28:08.143Z,3.90
2019-04-25T21:30:35.124Z,3.60
2019-04-25T21:33:01.846Z,4.00
2019-04-25T21:35:30.376Z,3.63
2019-04-25T21:37:57.535Z,3.57
2019-04-25T21:40:44.681Z,2.87
2019-04-25T21:43:15.875Z,3.37
2019-04-25T21:45:43.330Z,3.50
2019-04-25T21:48:11.198Z,3.43
2019-04-25T21:50:39.217Z,4.40
2019-04-25T21:53:06.330Z,4.00
2019-04-25T21:55:34.235Z,4.73
2019-04-25T21:58:02.085Z,4.27
2019-04-25T22:00:56.577Z,4.20
2019-04-25T22:03:24.968Z,5.43
2019-04-25T22:05:52.431Z,4.53
2019-04-25T22:08:21.571Z,3.90
2019-04-25T22:10:49.694Z,4.50
2019-04-25T22:13:18.294Z,5.70
2019-04-25T22:15:46.655Z,5.33
2019-04-25T22:18:14.215Z,5.53
2019-04-25T22:20:42.083Z,5.50
2019-04-25T22:23:09.254Z,5.97
2019-04-25T22:25:36.174Z,7.00
2019-04-25T22:28:03.749Z,7.07
2019-04-25T22:30:30.766Z,8.43
2019-04-25T22:33:17.195Z,7.20
2019-04-25T22:35:48.327Z,7.40
2019-04-25T22:38:15.330Z,8.83
2019-04-25T22:40:42.314Z,8.23
2019-04-25T22:43:09.566Z,8.13
2019-04-25T22:45:36.824Z,9.00
2019-04-25T22:48:04.687Z,7.80
2019-04-25T22:50:31.699Z,8.77
2019-04-25T22:52:58.415Z,8.90
2019-04-25T22:55:26.963Z,8.93
2019-04-25T22:57:53.723Z,8.97
2019-04-25T23:00:26.001Z,9.13
2019-04-25T23:02:58.511Z,8.20
2019-04-25T23:05:44.624Z,9.50
2019-04-25T23:08:12.612Z,9.73
2019-04-25T23:10:39.308Z,10.50
2019-04-25T23:13:06.742Z,10.43
2019-04-25T23:15:33.571Z,10.70
2019-04-25T23:18:00.587Z,10.50
2019-04-25T23:20:28.352Z,9.43
2019-04-25T23:22:55.066Z,10.67
2019-04-25T23:25:26.867Z,10.27
2019-04-25T23:28:18.818Z,8.87
2019-04-25T23:31:10.493Z,10.80
2019-04-25T23:33:37.279Z,10.60
2019-04-25T23:36:04.528Z,10.93
2019-04-25T23:38:32.409Z,9.40
2019-04-25T23:40:59.427Z,10.47
2019-04-25T23:43:26.107Z,10.27
2019-04-25T23:45:52.783Z,9.57
2019-04-25T23:48:19.735Z,10.57
2019-04-25T23:50:46.347Z,9.93
2019-04-25T23:53:12.999Z,10.80
2019-04-25T23:55:39.628Z,9.50
2019-04-25T23:58:07.066Z,9.47
